sensor_id;sensor_type;location;lat;lon;timestamp;P1;durP1;ratioP1;P2;durP2;ratioP2
7171;SDS011;3627;46.544;14.944;2023-07-28T00:01:40;2.78;;;2.20;;
7171;SDS011;3627;46.544;14.944;2023-07-28T00:04:06;2.78;;;2.50;;
7171;SDS011;3627;46.544;14.944;2023-07-28T00:06:34;3.47;;;2.10;;
7171;SDS011;3627;46.544;14.944;2023-07-28T00:09:01;4.10;;;2.42;;
7171;SDS011;3627;46.544;14.944;2023-07-28T00:11:27;2.92;;;2.42;;
7171;SDS011;3627;46.544;14.944;2023-07-28T00:13:54;2.78;;;2.42;;
7171;SDS011;3627;46.544;14.944;2023-07-28T00:16:22;2.90;;;2.22;;
7171;SDS011;3627;46.544;14.944;2023-07-28T00:18:48;2.65;;;2.40;;
7171;SDS011;3627;46.544;14.944;2023-07-28T00:21:14;3.30;;;2.20;;
7171;SDS011;3627;46.544;14.944;2023-07-28T00:23:41;2.30;;;1.92;;
7171;SDS011;3627;46.544;14.944;2023-07-28T00:26:07;2.58;;;2.20;;
7171;SDS011;3627;46.544;14.944;2023-07-28T00:28:34;2.42;;;2.03;;
7171;SDS011;3627;46.544;14.944;2023-07-28T00:31:00;3.80;;;2.38;;
7171;SDS011;3627;46.544;14.944;2023-07-28T00:33:28;2.45;;;2.25;;
7171;SDS011;3627;46.544;14.944;2023-07-28T00:35:54;2.70;;;2.10;;
7171;SDS011;3627;46.544;14.944;2023-07-28T00:38:20;4.15;;;2.03;;
7171;SDS011;3627;46.544;14.944;2023-07-28T00:40:47;4.65;;;2.50;;
7171;SDS011;3627;46.544;14.944;2023-07-28T00:43:13;2.80;;;2.50;;
7171;SDS011;3627;46.544;14.944;2023-07-28T00:45:40;3.50;;;2.58;;
7171;SDS011;3627;46.544;14.944;2023-07-28T00:48:08;4.35;;;2.72;;
7171;SDS011;3627;46.544;14.944;2023-07-28T00:50:38;2.92;;;2.35;;
7171;SDS011;3627;46.544;14.944;2023-07-28T00:53:05;4.53;;;2.70;;
7171;SDS011;3627;46.544;14.944;2023-07-28T00:55:31;3.67;;;2.47;;
7171;SDS011;3627;46.544;14.944;2023-07-28T00:57:57;4.53;;;2.53;;
7171;SDS011;3627;46.544;14.944;2023-07-28T01:00:24;2.40;;;2.20;;
7171;SDS011;3627;46.544;14.944;2023-07-28T01:02:50;3.70;;;2.55;;
7171;SDS011;3627;46.544;14.944;2023-07-28T01:05:17;3.13;;;2.40;;
7171;SDS011;3627;46.544;14.944;2023-07-28T01:07:47;4.80;;;2.72;;
7171;SDS011;3627;46.544;14.944;2023-07-28T01:10:17;3.25;;;2.30;;
7171;SDS011;3627;46.544;14.944;2023-07-28T01:12:44;3.33;;;2.30;;
7171;SDS011;3627;46.544;14.944;2023-07-28T01:15:10;3.17;;;2.60;;
7171;SDS011;3627;46.544;14.944;2023-07-28T01:17:36;2.97;;;2.67;;
7171;SDS011;3627;46.544;14.944;2023-07-28T01:20:03;3.97;;;2.95;;
7171;SDS011;3627;46.544;14.944;2023-07-28T01:22:35;2.90;;;2.58;;
7171;SDS011;3627;46.544;14.944;2023-07-28T01:25:09;3.75;;;2.40;;
7171;SDS011;3627;46.544;14.944;2023-07-28T01:27:41;5.28;;;2.50;;
7171;SDS011;3627;46.544;14.944;2023-07-28T01:30:09;2.67;;;2.40;;
7171;SDS011;3627;46.544;14.944;2023-07-28T01:32:35;2.78;;;2.40;;
7171;SDS011;3627;46.544;14.944;2023-07-28T01:35:02;3.55;;;2.72;;
7171;SDS011;3627;46.544;14.944;2023-07-28T01:37:28;2.65;;;2.45;;
7171;SDS011;3627;46.544;14.944;2023-07-28T01:39:55;3.60;;;2.65;;
7171;SDS011;3627;46.544;14.944;2023-07-28T01:42:22;3.40;;;2.60;;
7171;SDS011;3627;46.544;14.944;2023-07-28T01:44:50;2.95;;;2.47;;
7171;SDS011;3627;46.544;14.944;2023-07-28T01:47:16;4.30;;;2.60;;
7171;SDS011;3627;46.544;14.944;2023-07-28T01:49:42;3.47;;;2.47;;
7171;SDS011;3627;46.544;14.944;2023-07-28T01:52:09;3.95;;;2.50;;
7171;SDS011;3627;46.544;14.944;2023-07-28T01:54:35;3.22;;;2.50;;
7171;SDS011;3627;46.544;14.944;2023-07-28T01:57:02;4.57;;;2.60;;
7171;SDS011;3627;46.544;14.944;2023-07-28T01:59:28;3.42;;;2.45;;
7171;SDS011;3627;46.544;14.944;2023-07-28T02:01:56;3.72;;;2.53;;
7171;SDS011;3627;46.544;14.944;2023-07-28T02:04:23;2.65;;;2.33;;
7171;SDS011;3627;46.544;14.944;2023-07-28T02:06:49;2.88;;;2.38;;
7171;SDS011;3627;46.544;14.944;2023-07-28T02:09:16;3.08;;;2.70;;
7171;SDS011;3627;46.544;14.944;2023-07-28T02:11:43;4.45;;;2.70;;
7171;SDS011;3627;46.544;14.944;2023-07-28T02:14:09;3.30;;;2.65;;
7171;SDS011;3627;46.544;14.944;2023-07-28T02:16:36;2.70;;;2.50;;
7171;SDS011;3627;46.544;14.944;2023-07-28T02:19:03;3.75;;;3.10;;
7171;SDS011;3627;46.544;14.944;2023-07-28T02:21:30;2.88;;;2.63;;
7171;SDS011;3627;46.544;14.944;2023-07-28T02:23:56;2.92;;;2.42;;
7171;SDS011;3627;46.544;14.944;2023-07-28T02:26:23;2.55;;;2.30;;
7171;SDS011;3627;46.544;14.944;2023-07-28T02:28:49;3.15;;;2.50;;
7171;SDS011;3627;46.544;14.944;2023-07-28T02:31:15;2.42;;;2.22;;
7171;SDS011;3627;46.544;14.944;2023-07-28T02:33:42;3.58;;;2.53;;
7171;SDS011;3627;46.544;14.944;2023-07-28T02:36:09;3.33;;;2.80;;
7171;SDS011;3627;46.544;14.944;2023-07-28T02:38:36;4.38;;;2.65;;
7171;SDS011;3627;46.544;14.944;2023-07-28T02:41:02;3.28;;;2.80;;
7171;SDS011;3627;46.544;14.944;2023-07-28T02:43:29;5.07;;;2.70;;
7171;SDS011;3627;46.544;14.944;2023-07-28T02:45:56;2.80;;;2.30;;
7171;SDS011;3627;46.544;14.944;2023-07-28T02:48:22;2.70;;;2.50;;
7171;SDS011;3627;46.544;14.944;2023-07-28T02:50:49;4.28;;;2.60;;
7171;SDS011;3627;46.544;14.944;2023-07-28T02:53:17;2.67;;;2.40;;
7171;SDS011;3627;46.544;14.944;2023-07-28T02:55:44;3.05;;;2.47;;
7171;SDS011;3627;46.544;14.944;2023-07-28T02:58:11;4.20;;;2.85;;
7171;SDS011;3627;46.544;14.944;2023-07-28T03:00:37;2.78;;;2.58;;
7171;SDS011;3627;46.544;14.944;2023-07-28T03:03:04;2.42;;;2.22;;
7171;SDS011;3627;46.544;14.944;2023-07-28T03:05:30;3.90;;;2.75;;
7171;SDS011;3627;46.544;14.944;2023-07-28T03:07:57;2.65;;;2.42;;
7171;SDS011;3627;46.544;14.944;2023-07-28T03:10:25;3.97;;;2.33;;
7171;SDS011;3627;46.544;14.944;2023-07-28T03:12:51;2.92;;;2.60;;
7171;SDS011;3627;46.544;14.944;2023-07-28T03:15:17;4.63;;;2.58;;
7171;SDS011;3627;46.544;14.944;2023-07-28T03:17:44;2.40;;;2.20;;
7171;SDS011;3627;46.544;14.944;2023-07-28T03:20:10;2.63;;;2.42;;
7171;SDS011;3627;46.544;14.944;2023-07-28T03:22:37;4.18;;;2.85;;
7171;SDS011;3627;46.544;14.944;2023-07-28T03:25:03;6.95;;;3.17;;
7171;SDS011;3627;46.544;14.944;2023-07-28T03:27:31;2.40;;;2.20;;
7171;SDS011;3627;46.544;14.944;2023-07-28T03:29:57;2.53;;;2.33;;
7171;SDS011;3627;46.544;14.944;2023-07-28T03:32:24;2.90;;;2.60;;
7171;SDS011;3627;46.544;14.944;2023-07-28T03:34:50;3.38;;;2.70;;
7171;SDS011;3627;46.544;14.944;2023-07-28T03:37:17;2.60;;;2.40;;
7171;SDS011;3627;46.544;14.944;2023-07-28T03:39:44;3.38;;;2.40;;
7171;SDS011;3627;46.544;14.944;2023-07-28T03:42:11;3.08;;;2.50;;
7171;SDS011;3627;46.544;14.944;2023-07-28T03:44:39;3.08;;;2.45;;
7171;SDS011;3627;46.544;14.944;2023-07-28T03:47:06;3.20;;;2.90;;
7171;SDS011;3627;46.544;14.944;2023-07-28T03:49:33;2.90;;;2.65;;
7171;SDS011;3627;46.544;14.944;2023-07-28T03:51:59;3.45;;;2.30;;
7171;SDS011;3627;46.544;14.944;2023-07-28T03:54:25;3.08;;;2.60;;
7171;SDS011;3627;46.544;14.944;2023-07-28T03:56:53;4.28;;;2.78;;
7171;SDS011;3627;46.544;14.944;2023-07-28T03:59:19;4.05;;;2.60;;
7171;SDS011;3627;46.544;14.944;2023-07-28T04:01:47;3.22;;;2.50;;
7171;SDS011;3627;46.544;14.944;2023-07-28T04:04:13;3.22;;;2.88;;
7171;SDS011;3627;46.544;14.944;2023-07-28T04:06:40;3.30;;;2.63;;
7171;SDS011;3627;46.544;14.944;2023-07-28T04:09:06;5.25;;;3.85;;
7171;SDS011;3627;46.544;14.944;2023-07-28T04:11:33;4.20;;;3.38;;
7171;SDS011;3627;46.544;14.944;2023-07-28T04:13:59;2.63;;;2.28;;
7171;SDS011;3627;46.544;14.944;2023-07-28T04:16:26;4.75;;;2.53;;
7171;SDS011;3627;46.544;14.944;2023-07-28T04:18:53;3.28;;;2.60;;
7171;SDS011;3627;46.544;14.944;2023-07-28T04:21:20;2.90;;;2.63;;
7171;SDS011;3627;46.544;14.944;2023-07-28T04:23:46;3.08;;;2.72;;
7171;SDS011;3627;46.544;14.944;2023-07-28T04:26:13;5.13;;;2.90;;
7171;SDS011;3627;46.544;14.944;2023-07-28T04:28:39;7.05;;;2.58;;
7171;SDS011;3627;46.544;14.944;2023-07-28T04:31:05;4.65;;;2.72;;
7171;SDS011;3627;46.544;14.944;2023-07-28T04:33:32;4.05;;;2.40;;
7171;SDS011;3627;46.544;14.944;2023-07-28T04:36:00;7.13;;;2.33;;
7171;SDS011;3627;46.544;14.944;2023-07-28T04:38:27;3.70;;;2.50;;
7171;SDS011;3627;46.544;14.944;2023-07-28T04:40:53;3.85;;;2.53;;
7171;SDS011;3627;46.544;14.944;2023-07-28T04:43:19;2.08;;;1.75;;
7171;SDS011;3627;46.544;14.944;2023-07-28T04:45:46;2.72;;;2.40;;
7171;SDS011;3627;46.544;14.944;2023-07-28T04:48:12;2.70;;;2.50;;
7171;SDS011;3627;46.544;14.944;2023-07-28T04:50:39;4.40;;;2.58;;
7171;SDS011;3627;46.544;14.944;2023-07-28T04:53:06;3.75;;;2.50;;
7171;SDS011;3627;46.544;14.944;2023-07-28T04:55:33;4.38;;;2.92;;
7171;SDS011;3627;46.544;14.944;2023-07-28T04:57:59;3.95;;;2.63;;
7171;SDS011;3627;46.544;14.944;2023-07-28T05:00:25;2.90;;;2.22;;
7171;SDS011;3627;46.544;14.944;2023-07-28T05:02:52;3.45;;;2.22;;
7171;SDS011;3627;46.544;14.944;2023-07-28T05:05:18;3.50;;;2.08;;
7171;SDS011;3627;46.544;14.944;2023-07-28T05:07:44;5.45;;;2.75;;
7171;SDS011;3627;46.544;14.944;2023-07-28T05:10:12;2.90;;;2.40;;
7171;SDS011;3627;46.544;14.944;2023-07-28T05:12:39;5.18;;;2.30;;
7171;SDS011;3627;46.544;14.944;2023-07-28T05:15:05;2.75;;;2.45;;
7171;SDS011;3627;46.544;14.944;2023-07-28T05:17:35;3.33;;;2.40;;
7171;SDS011;3627;46.544;14.944;2023-07-28T05:20:01;3.97;;;2.42;;
7171;SDS011;3627;46.544;14.944;2023-07-28T05:22:28;4.32;;;2.65;;
7171;SDS011;3627;46.544;14.944;2023-07-28T05:24:54;6.03;;;2.88;;
7171;SDS011;3627;46.544;14.944;2023-07-28T05:27:22;3.33;;;2.17;;
7171;SDS011;3627;46.544;14.944;2023-07-28T05:29:48;4.72;;;2.22;;
7171;SDS011;3627;46.544;14.944;2023-07-28T05:32:15;3.15;;;2.33;;
7171;SDS011;3627;46.544;14.944;2023-07-28T05:34:41;3.70;;;2.50;;
7171;SDS011;3627;46.544;14.944;2023-07-28T05:37:08;6.75;;;2.45;;
7171;SDS011;3627;46.544;14.944;2023-07-28T05:39:34;3.25;;;2.40;;
7171;SDS011;3627;46.544;14.944;2023-07-28T05:42:00;3.30;;;2.30;;
7171;SDS011;3627;46.544;14.944;2023-07-28T05:44:29;3.95;;;2.17;;
7171;SDS011;3627;46.544;14.944;2023-07-28T05:46:55;3.50;;;2.55;;
7171;SDS011;3627;46.544;14.944;2023-07-28T05:49:21;3.72;;;2.22;;
7171;SDS011;3627;46.544;14.944;2023-07-28T05:51:48;3.00;;;2.20;;
7171;SDS011;3627;46.544;14.944;2023-07-28T05:54:14;4.13;;;2.20;;
7171;SDS011;3627;46.544;14.944;2023-07-28T05:56:40;3.75;;;2.17;;
7171;SDS011;3627;46.544;14.944;2023-07-28T05:59:07;5.15;;;1.85;;
7171;SDS011;3627;46.544;14.944;2023-07-28T06:01:35;2.08;;;1.70;;
7171;SDS011;3627;46.544;14.944;2023-07-28T06:04:01;2.70;;;2.03;;
7171;SDS011;3627;46.544;14.944;2023-07-28T06:06:27;3.35;;;1.70;;
7171;SDS011;3627;46.544;14.944;2023-07-28T06:08:54;4.32;;;1.73;;
7171;SDS011;3627;46.544;14.944;2023-07-28T06:11:20;4.05;;;2.22;;
7171;SDS011;3627;46.544;14.944;2023-07-28T06:13:47;3.53;;;1.80;;
7171;SDS011;3627;46.544;14.944;2023-07-28T06:16:13;2.88;;;2.00;;
7171;SDS011;3627;46.544;14.944;2023-07-28T06:18:41;2.20;;;1.83;;
7171;SDS011;3627;46.544;14.944;2023-07-28T06:21:08;1.95;;;1.58;;
7171;SDS011;3627;46.544;14.944;2023-07-28T06:23:34;2.95;;;1.98;;
7171;SDS011;3627;46.544;14.944;2023-07-28T06:26:00;2.17;;;1.98;;
7171;SDS011;3627;46.544;14.944;2023-07-28T06:28:27;4.35;;;2.33;;
7171;SDS011;3627;46.544;14.944;2023-07-28T06:30:53;2.65;;;2.22;;
7171;SDS011;3627;46.544;14.944;2023-07-28T06:33:20;4.47;;;2.05;;
7171;SDS011;3627;46.544;14.944;2023-07-28T06:35:48;2.08;;;1.88;;
7171;SDS011;3627;46.544;14.944;2023-07-28T06:38:14;2.60;;;2.00;;
7171;SDS011;3627;46.544;14.944;2023-07-28T06:40:40;5.93;;;2.20;;
7171;SDS011;3627;46.544;14.944;2023-07-28T06:43:07;3.50;;;1.77;;
7171;SDS011;3627;46.544;14.944;2023-07-28T06:45:33;2.80;;;1.90;;
7171;SDS011;3627;46.544;14.944;2023-07-28T06:48:00;1.90;;;1.70;;
7171;SDS011;3627;46.544;14.944;2023-07-28T06:50:26;2.72;;;1.83;;
7171;SDS011;3627;46.544;14.944;2023-07-28T06:52:54;2.20;;;2.00;;
7171;SDS011;3627;46.544;14.944;2023-07-28T06:55:20;2.20;;;1.80;;
7171;SDS011;3627;46.544;14.944;2023-07-28T06:57:47;1.75;;;1.58;;
7171;SDS011;3627;46.544;14.944;2023-07-28T07:00:14;1.80;;;1.70;;
7171;SDS011;3627;46.544;14.944;2023-07-28T07:02:41;2.08;;;1.80;;
7171;SDS011;3627;46.544;14.944;2023-07-28T07:05:08;2.53;;;1.98;;
7171;SDS011;3627;46.544;14.944;2023-07-28T07:07:34;2.10;;;1.90;;
7171;SDS011;3627;46.544;14.944;2023-07-28T07:10:02;2.10;;;1.90;;
7171;SDS011;3627;46.544;14.944;2023-07-28T07:12:29;2.63;;;1.90;;
7171;SDS011;3627;46.544;14.944;2023-07-28T07:14:55;2.47;;;1.95;;
7171;SDS011;3627;46.544;14.944;2023-07-28T07:17:22;3.03;;;2.10;;
7171;SDS011;3627;46.544;14.944;2023-07-28T07:19:48;1.83;;;1.58;;
7171;SDS011;3627;46.544;14.944;2023-07-28T07:22:15;2.08;;;1.80;;
7171;SDS011;3627;46.544;14.944;2023-07-28T07:24:41;3.13;;;1.90;;
7171;SDS011;3627;46.544;14.944;2023-07-28T07:27:09;2.05;;;1.83;;
7171;SDS011;3627;46.544;14.944;2023-07-28T07:29:36;2.42;;;1.73;;
7171;SDS011;3627;46.544;14.944;2023-07-28T07:32:02;2.10;;;1.90;;
7171;SDS011;3627;46.544;14.944;2023-07-28T07:34:29;2.40;;;1.92;;
7171;SDS011;3627;46.544;14.944;2023-07-28T07:36:55;7.22;;;2.50;;
7171;SDS011;3627;46.544;14.944;2023-07-28T07:39:22;2.10;;;1.83;;
7171;SDS011;3627;46.544;14.944;2023-07-28T07:41:48;2.45;;;1.77;;
7171;SDS011;3627;46.544;14.944;2023-07-28T07:44:16;2.58;;;1.73;;
7171;SDS011;3627;46.544;14.944;2023-07-28T07:46:43;2.63;;;2.13;;
7171;SDS011;3627;46.544;14.944;2023-07-28T07:49:09;2.45;;;1.75;;
7171;SDS011;3627;46.544;14.944;2023-07-28T07:51:35;1.98;;;1.77;;
7171;SDS011;3627;46.544;14.944;2023-07-28T07:54:02;2.00;;;1.73;;
7171;SDS011;3627;46.544;14.944;2023-07-28T07:56:28;3.75;;;1.90;;
7171;SDS011;3627;46.544;14.944;2023-07-28T07:58:55;2.72;;;1.67;;
7171;SDS011;3627;46.544;14.944;2023-07-28T08:01:23;1.63;;;1.52;;
7171;SDS011;3627;46.544;14.944;2023-07-28T08:03:49;1.60;;;1.50;;
7171;SDS011;3627;46.544;14.944;2023-07-28T08:06:15;2.03;;;1.73;;
7171;SDS011;3627;46.544;14.944;2023-07-28T08:08:42;1.92;;;1.70;;
7171;SDS011;3627;46.544;14.944;2023-07-28T08:11:08;2.33;;;1.85;;
7171;SDS011;3627;46.544;14.944;2023-07-28T08:13:35;2.10;;;1.70;;
7171;SDS011;3627;46.544;14.944;2023-07-28T08:16:01;2.10;;;1.70;;
7171;SDS011;3627;46.544;14.944;2023-07-28T08:18:29;2.50;;;1.70;;
7171;SDS011;3627;46.544;14.944;2023-07-28T08:20:55;2.30;;;1.90;;
7171;SDS011;3627;46.544;14.944;2023-07-28T08:23:22;1.85;;;1.58;;
7171;SDS011;3627;46.544;14.944;2023-07-28T08:25:48;2.60;;;1.92;;
7171;SDS011;3627;46.544;14.944;2023-07-28T08:28:14;2.17;;;1.80;;
7171;SDS011;3627;46.544;14.944;2023-07-28T08:30:41;3.05;;;1.70;;
7171;SDS011;3627;46.544;14.944;2023-07-28T08:33:07;2.22;;;2.03;;
7171;SDS011;3627;46.544;14.944;2023-07-28T08:35:35;1.60;;;1.50;;
7171;SDS011;3627;46.544;14.944;2023-07-28T08:38:01;1.92;;;1.60;;
7171;SDS011;3627;46.544;14.944;2023-07-28T08:40:28;2.33;;;1.90;;
7171;SDS011;3627;46.544;14.944;2023-07-28T08:42:54;3.13;;;1.90;;
7171;SDS011;3627;46.544;14.944;2023-07-28T08:45:21;1.80;;;1.67;;
7171;SDS011;3627;46.544;14.944;2023-07-28T08:47:49;2.42;;;2.10;;
7171;SDS011;3627;46.544;14.944;2023-07-28T08:50:16;2.55;;;2.35;;
7171;SDS011;3627;46.544;14.944;2023-07-28T08:52:44;9.60;;;2.50;;
7171;SDS011;3627;46.544;14.944;2023-07-28T08:55:10;1.77;;;1.50;;
7171;SDS011;3627;46.544;14.944;2023-07-28T08:57:38;2.58;;;1.67;;
7171;SDS011;3627;46.544;14.944;2023-07-28T09:00:08;2.15;;;1.90;;
7171;SDS011;3627;46.544;14.944;2023-07-28T09:02:36;2.67;;;1.80;;
7171;SDS011;3627;46.544;14.944;2023-07-28T09:05:02;2.15;;;1.63;;
7171;SDS011;3627;46.544;14.944;2023-07-28T09:07:33;2.22;;;1.52;;
7171;SDS011;3627;46.544;14.944;2023-07-28T09:10:01;2.15;;;1.60;;
7171;SDS011;3627;46.544;14.944;2023-07-28T09:12:27;1.95;;;1.63;;
7171;SDS011;3627;46.544;14.944;2023-07-28T09:14:56;3.53;;;1.70;;
7171;SDS011;3627;46.544;14.944;2023-07-28T09:17:23;3.28;;;1.75;;
7171;SDS011;3627;46.544;14.944;2023-07-28T09:19:50;2.70;;;1.98;;
7171;SDS011;3627;46.544;14.944;2023-07-28T09:22:17;3.10;;;1.73;;
7171;SDS011;3627;46.544;14.944;2023-07-28T09:24:43;3.97;;;1.70;;
7171;SDS011;3627;46.544;14.944;2023-07-28T09:27:18;3.90;;;1.50;;
7171;SDS011;3627;46.544;14.944;2023-07-28T09:29:47;3.65;;;1.98;;
7171;SDS011;3627;46.544;14.944;2023-07-28T09:32:13;3.65;;;1.40;;
7171;SDS011;3627;46.544;14.944;2023-07-28T09:34:40;2.15;;;1.80;;
7171;SDS011;3627;46.544;14.944;2023-07-28T09:37:06;3.22;;;1.80;;
7171;SDS011;3627;46.544;14.944;2023-07-28T09:39:35;2.70;;;1.75;;
7171;SDS011;3627;46.544;14.944;2023-07-28T09:42:02;2.13;;;1.65;;
7171;SDS011;3627;46.544;14.944;2023-07-28T09:44:31;1.90;;;1.77;;
7171;SDS011;3627;46.544;14.944;2023-07-28T09:46:57;2.35;;;1.90;;
7171;SDS011;3627;46.544;14.944;2023-07-28T09:49:26;2.15;;;1.95;;
7171;SDS011;3627;46.544;14.944;2023-07-28T09:51:54;3.20;;;1.90;;
7171;SDS011;3627;46.544;14.944;2023-07-28T09:54:23;2.53;;;2.03;;
7171;SDS011;3627;46.544;14.944;2023-07-28T09:56:52;4.03;;;2.10;;
7171;SDS011;3627;46.544;14.944;2023-07-28T09:59:21;4.13;;;2.28;;
7171;SDS011;3627;46.544;14.944;2023-07-28T10:01:52;3.17;;;2.33;;
7171;SDS011;3627;46.544;14.944;2023-07-28T10:04:18;2.17;;;1.98;;
7171;SDS011;3627;46.544;14.944;2023-07-28T10:06:46;2.53;;;2.33;;
7171;SDS011;3627;46.544;14.944;2023-07-28T10:09:13;6.80;;;5.63;;
7171;SDS011;3627;46.544;14.944;2023-07-28T10:11:41;8.30;;;5.90;;
7171;SDS011;3627;46.544;14.944;2023-07-28T10:14:07;6.10;;;5.22;;
7171;SDS011;3627;46.544;14.944;2023-07-28T10:16:37;7.78;;;5.90;;
7171;SDS011;3627;46.544;14.944;2023-07-28T10:19:05;8.70;;;6.97;;
7171;SDS011;3627;46.544;14.944;2023-07-28T10:21:32;5.30;;;4.43;;
7171;SDS011;3627;46.544;14.944;2023-07-28T10:24:05;5.07;;;3.28;;
7171;SDS011;3627;46.544;14.944;2023-07-28T10:26:35;4.40;;;3.30;;
7171;SDS011;3627;46.544;14.944;2023-07-28T10:29:08;3.35;;;2.90;;
7171;SDS011;3627;46.544;14.944;2023-07-28T10:31:35;4.38;;;2.92;;
7171;SDS011;3627;46.544;14.944;2023-07-28T10:34:02;2.53;;;2.25;;
7171;SDS011;3627;46.544;14.944;2023-07-28T10:36:33;3.42;;;2.33;;
7171;SDS011;3627;46.544;14.944;2023-07-28T10:39:00;4.63;;;2.58;;
7171;SDS011;3627;46.544;14.944;2023-07-28T10:41:28;2.47;;;2.28;;
7171;SDS011;3627;46.544;14.944;2023-07-28T10:43:55;4.25;;;2.40;;
7171;SDS011;3627;46.544;14.944;2023-07-28T10:46:21;3.53;;;2.70;;
7171;SDS011;3627;46.544;14.944;2023-07-28T10:48:48;4.53;;;2.40;;
7171;SDS011;3627;46.544;14.944;2023-07-28T10:51:21;2.75;;;2.08;;
7171;SDS011;3627;46.544;14.944;2023-07-28T10:53:51;2.50;;;2.20;;
7171;SDS011;3627;46.544;14.944;2023-07-28T10:56:16;2.53;;;2.30;;
7171;SDS011;3627;46.544;14.944;2023-07-28T10:58:43;2.47;;;2.28;;
7171;SDS011;3627;46.544;14.944;2023-07-28T11:01:10;3.58;;;2.22;;
7171;SDS011;3627;46.544;14.944;2023-07-28T11:03:37;2.47;;;2.20;;
7171;SDS011;3627;46.544;14.944;2023-07-28T11:06:03;3.22;;;2.33;;
7171;SDS011;3627;46.544;14.944;2023-07-28T11:08:31;3.47;;;2.30;;
7171;SDS011;3627;46.544;14.944;2023-07-28T11:10:59;2.67;;;2.10;;
7171;SDS011;3627;46.544;14.944;2023-07-28T11:13:25;3.80;;;2.22;;
7171;SDS011;3627;46.544;14.944;2023-07-28T11:15:52;2.90;;;2.20;;
7171;SDS011;3627;46.544;14.944;2023-07-28T11:18:19;2.50;;;2.10;;
7171;SDS011;3627;46.544;14.944;2023-07-28T11:20:46;2.35;;;2.15;;
7171;SDS011;3627;46.544;14.944;2023-07-28T11:23:13;3.95;;;2.30;;
7171;SDS011;3627;46.544;14.944;2023-07-28T11:25:40;2.22;;;2.03;;
7171;SDS011;3627;46.544;14.944;2023-07-28T11:28:08;3.03;;;2.60;;
7171;SDS011;3627;46.544;14.944;2023-07-28T11:30:35;3.72;;;2.40;;
7171;SDS011;3627;46.544;14.944;2023-07-28T11:33:02;2.53;;;2.30;;
7171;SDS011;3627;46.544;14.944;2023-07-28T11:35:29;4.05;;;2.42;;
7171;SDS011;3627;46.544;14.944;2023-07-28T11:37:55;2.88;;;2.42;;
7171;SDS011;3627;46.544;14.944;2023-07-28T11:40:22;2.17;;;1.98;;
7171;SDS011;3627;46.544;14.944;2023-07-28T11:42:51;3.22;;;2.15;;
7171;SDS011;3627;46.544;14.944;2023-07-28T11:45:20;2.50;;;2.30;;
7171;SDS011;3627;46.544;14.944;2023-07-28T11:47:57;3.55;;;2.53;;
7171;SDS011;3627;46.544;14.944;2023-07-28T11:50:24;3.00;;;2.60;;
7171;SDS011;3627;46.544;14.944;2023-07-28T11:52:50;2.45;;;2.05;;
7171;SDS011;3627;46.544;14.944;2023-07-28T11:55:17;2.42;;;2.15;;
7171;SDS011;3627;46.544;14.944;2023-07-28T11:57:44;2.28;;;2.05;;
7171;SDS011;3627;46.544;14.944;2023-07-28T12:00:11;4.97;;;2.40;;
7171;SDS011;3627;46.544;14.944;2023-07-28T12:02:43;2.22;;;2.03;;
7171;SDS011;3627;46.544;14.944;2023-07-28T12:05:13;2.67;;;2.30;;
7171;SDS011;3627;46.544;14.944;2023-07-28T12:07:39;4.40;;;2.63;;
7171;SDS011;3627;46.544;14.944;2023-07-28T12:10:06;4.50;;;2.40;;
7171;SDS011;3627;46.544;14.944;2023-07-28T12:12:38;3.10;;;2.22;;
7171;SDS011;3627;46.544;14.944;2023-07-28T12:15:17;5.15;;;2.30;;
7171;SDS011;3627;46.544;14.944;2023-07-28T12:20:38;2.85;;;2.25;;
7171;SDS011;3627;46.544;14.944;2023-07-28T12:23:04;2.47;;;2.10;;
7171;SDS011;3627;46.544;14.944;2023-07-28T12:25:31;3.33;;;2.30;;
7171;SDS011;3627;46.544;14.944;2023-07-28T12:27:57;2.97;;;2.67;;
7171;SDS011;3627;46.544;14.944;2023-07-28T12:30:23;2.55;;;2.33;;
7171;SDS011;3627;46.544;14.944;2023-07-28T12:32:50;2.58;;;2.38;;
7171;SDS011;3627;46.544;14.944;2023-07-28T12:35:16;4.03;;;2.42;;
7171;SDS011;3627;46.544;14.944;2023-07-28T12:37:45;2.33;;;2.08;;
7171;SDS011;3627;46.544;14.944;2023-07-28T12:40:11;3.33;;;2.70;;
7171;SDS011;3627;46.544;14.944;2023-07-28T12:42:38;4.28;;;2.65;;
7171;SDS011;3627;46.544;14.944;2023-07-28T12:45:05;3.80;;;2.58;;
7171;SDS011;3627;46.544;14.944;2023-07-28T12:47:32;3.10;;;2.60;;
7171;SDS011;3627;46.544;14.944;2023-07-28T12:49:58;3.80;;;2.45;;
7171;SDS011;3627;46.544;14.944;2023-07-28T12:52:24;2.92;;;2.28;;
7171;SDS011;3627;46.544;14.944;2023-07-28T12:54:52;3.67;;;2.58;;
7171;SDS011;3627;46.544;14.944;2023-07-28T12:57:19;3.33;;;2.30;;
7171;SDS011;3627;46.544;14.944;2023-07-28T12:59:45;2.95;;;2.42;;
7171;SDS011;3627;46.544;14.944;2023-07-28T13:02:11;2.17;;;1.95;;
7171;SDS011;3627;46.544;14.944;2023-07-28T13:04:38;2.58;;;2.38;;
7171;SDS011;3627;46.544;14.944;2023-07-28T13:07:04;2.92;;;2.60;;
7171;SDS011;3627;46.544;14.944;2023-07-28T13:09:31;3.00;;;2.65;;
7171;SDS011;3627;46.544;14.944;2023-07-28T13:11:58;2.35;;;2.15;;
7171;SDS011;3627;46.544;14.944;2023-07-28T13:14:25;3.03;;;2.47;;
7171;SDS011;3627;46.544;14.944;2023-07-28T13:16:51;2.50;;;2.00;;
7171;SDS011;3627;46.544;14.944;2023-07-28T13:19:18;3.08;;;2.53;;
7171;SDS011;3627;46.544;14.944;2023-07-28T13:21:45;2.33;;;2.10;;
7171;SDS011;3627;46.544;14.944;2023-07-28T13:24:11;2.67;;;2.28;;
7171;SDS011;3627;46.544;14.944;2023-07-28T13:26:37;2.97;;;2.30;;
7171;SDS011;3627;46.544;14.944;2023-07-28T13:29:05;3.42;;;2.33;;
7171;SDS011;3627;46.544;14.944;2023-07-28T13:31:32;2.63;;;2.35;;
7171;SDS011;3627;46.544;14.944;2023-07-28T13:33:59;3.13;;;2.58;;
7171;SDS011;3627;46.544;14.944;2023-07-28T13:36:25;2.90;;;2.60;;
7171;SDS011;3627;46.544;14.944;2023-07-28T13:38:51;3.50;;;2.45;;
7171;SDS011;3627;46.544;14.944;2023-07-28T13:41:18;3.42;;;2.60;;
7171;SDS011;3627;46.544;14.944;2023-07-28T13:43:44;2.30;;;2.10;;
7171;SDS011;3627;46.544;14.944;2023-07-28T13:46:12;2.95;;;2.25;;
7171;SDS011;3627;46.544;14.944;2023-07-28T13:48:38;2.67;;;2.38;;
7171;SDS011;3627;46.544;14.944;2023-07-28T13:51:05;5.20;;;1.98;;
7171;SDS011;3627;46.544;14.944;2023-07-28T13:53:32;2.45;;;2.17;;
7171;SDS011;3627;46.544;14.944;2023-07-28T13:55:58;2.42;;;2.22;;
7171;SDS011;3627;46.544;14.944;2023-07-28T13:58:25;2.88;;;2.58;;
7171;SDS011;3627;46.544;14.944;2023-07-28T14:00:51;2.55;;;2.35;;
7171;SDS011;3627;46.544;14.944;2023-07-28T14:03:19;2.40;;;2.20;;
7171;SDS011;3627;46.544;14.944;2023-07-28T14:05:46;2.40;;;2.00;;
7171;SDS011;3627;46.544;14.944;2023-07-28T14:08:12;2.92;;;2.17;;
7171;SDS011;3627;46.544;14.944;2023-07-28T14:10:43;3.90;;;2.60;;
7171;SDS011;3627;46.544;14.944;2023-07-28T14:13:09;2.58;;;2.08;;
7171;SDS011;3627;46.544;14.944;2023-07-28T14:15:35;2.22;;;1.90;;
7171;SDS011;3627;46.544;14.944;2023-07-28T14:18:02;5.25;;;2.40;;
7171;SDS011;3627;46.544;14.944;2023-07-28T14:20:30;3.20;;;2.45;;
7171;SDS011;3627;46.544;14.944;2023-07-28T14:22:59;4.72;;;2.33;;
7171;SDS011;3627;46.544;14.944;2023-07-28T14:25:25;3.53;;;2.63;;
7171;SDS011;3627;46.544;14.944;2023-07-28T14:27:52;2.97;;;2.50;;
7171;SDS011;3627;46.544;14.944;2023-07-28T14:30:18;6.75;;;2.58;;
7171;SDS011;3627;46.544;14.944;2023-07-28T14:32:45;3.33;;;2.22;;
7171;SDS011;3627;46.544;14.944;2023-07-28T14:35:11;3.28;;;2.40;;
7171;SDS011;3627;46.544;14.944;2023-07-28T14:37:39;2.63;;;2.42;;
7171;SDS011;3627;46.544;14.944;2023-07-28T14:40:06;2.60;;;2.20;;
7171;SDS011;3627;46.544;14.944;2023-07-28T14:42:32;2.63;;;2.10;;
7171;SDS011;3627;46.544;14.944;2023-07-28T14:44:58;3.72;;;2.35;;
7171;SDS011;3627;46.544;14.944;2023-07-28T14:47:25;2.55;;;2.33;;
7171;SDS011;3627;46.544;14.944;2023-07-28T14:49:51;4.43;;;2.30;;
7171;SDS011;3627;46.544;14.944;2023-07-28T14:52:17;3.13;;;2.30;;
7171;SDS011;3627;46.544;14.944;2023-07-28T14:54:45;2.92;;;2.70;;
7171;SDS011;3627;46.544;14.944;2023-07-28T14:57:12;2.83;;;2.20;;
7171;SDS011;3627;46.544;14.944;2023-07-28T14:59:40;3.50;;;2.28;;
7171;SDS011;3627;46.544;14.944;2023-07-28T15:02:06;3.40;;;2.67;;